Terminal Aerodrome Forecast
Issued by NWS Columbia, SC

Home | Current Version | Previous Version | Text Only | Print | Product List | Glossary On
Versions: 1 2 3 4 5 6 7 8 9 10 11 12 13 14 15 16 17 18 19 20 21 22 23 24 25 26 27 28 29 30 31 32 33 34 35
000
FTUS42 KCAE 240027 AAA
TAFCAE
TAF AMD
KCAE 240027Z 2400/2424 21005KT P6SM SCT020 BKN080
     FM240900 VRB03KT 4SM BR BKN020
     FM241000 VRB03KT 1SM BR OVC007
     FM241400 09004KT P6SM OVC015
     FM241700 11006KT 5SM -SHRA SCT015 BKN030=

USA.gov is the U.S. government's official web portal to all federal, state and local government web resources and services.